Time;durP1;ratioP1;P1;durP2;ratioP2;P2;SDS_P1;SDS_P2;PMS_P1;PMS_P2;Temp;Humidity;BMP_temperature;BMP_pressure;BME280_temperature;BME280_humidity;BME280_pressure;Samples;Min_cycle;Max_cycle;Signal;HPM_P1;HPM_P2
2023/03/06 00:03:39;;;;;;;12.60;5.63;;;0.20;99.90;;;;;;8207393;28;20530;-78
2023/03/06 00:07:40;;;;;;;16.52;6.80;;;0.20;99.90;;;;;;8213028;28;20058;-77
2023/03/06 00:11:40;;;;;;;14.57;6.57;;;0.20;99.90;;;;;;8211291;28;20035;-77
2023/03/06 00:15:41;;;;;;;17.42;7.28;;;0.10;99.90;;;;;;8203705;28;20620;-77
2023/03/06 00:19:42;;;;;;;14.35;6.03;;;0.10;99.90;;;;;;8205435;28;20030;-78
2023/03/06 00:23:42;;;;;;;13.60;5.93;;;0.30;99.90;;;;;;8228124;28;20103;-77
2023/03/06 00:27:43;;;;;;;12.85;5.45;;;0.40;99.90;;;;;;8219428;28;20027;-77
2023/03/06 00:31:46;;;;;;;17.02;6.85;;;0.30;99.90;;;;;;8223079;28;20054;-78
2023/03/06 00:35:47;;;;;;;16.45;6.70;;;0.10;99.90;;;;;;8216169;28;20042;-77
2023/03/06 00:39:48;;;;;;;15.40;6.65;;;0.10;99.90;;;;;;8204795;28;20035;-77
2023/03/06 00:43:48;;;;;;;9.73;4.85;;;0.00;99.90;;;;;;8221871;28;20026;-77
2023/03/06 00:47:49;;;;;;;13.18;5.70;;;0.10;99.90;;;;;;8215739;28;20479;-77
2023/03/06 00:51:50;;;;;;;13.82;5.13;;;0.10;99.90;;;;;;8226344;28;20070;-77
2023/03/06 00:55:51;;;;;;;17.35;6.53;;;-0.10;99.90;;;;;;8203052;28;20023;-77
2023/03/06 00:59:51;;;;;;;14.68;5.82;;;-0.20;99.90;;;;;;8219749;28;20081;-77
2023/03/06 01:03:52;;;;;;;14.25;6.40;;;-0.20;99.90;;;;;;8224328;28;20030;-78
2023/03/06 01:07:52;;;;;;;15.57;6.20;;;-0.20;99.90;;;;;;8213212;28;20031;-77
2023/03/06 01:11:53;;;;;;;16.33;7.00;;;-0.20;99.90;;;;;;8218651;28;20081;-78
2023/03/06 01:15:54;;;;;;;20.48;7.95;;;-0.20;99.90;;;;;;8222793;28;20050;-78
2023/03/06 01:19:56;;;;;;;15.25;6.88;;;-0.20;99.90;;;;;;8227796;28;20031;-78
2023/03/06 01:23:56;;;;;;;17.33;7.25;;;-0.20;99.90;;;;;;8224352;28;20058;-77
2023/03/06 01:27:57;;;;;;;14.02;6.28;;;-0.20;99.90;;;;;;8214531;28;20046;-77
2023/03/06 01:31:57;;;;;;;18.27;7.07;;;-0.30;99.90;;;;;;8221369;28;20027;-76
2023/03/06 01:35:58;;;;;;;20.67;6.18;;;-0.40;99.90;;;;;;8224549;28;20058;-78
2023/03/06 01:39:58;;;;;;;19.65;7.35;;;-0.40;99.90;;;;;;8219983;28;20094;-78
2023/03/06 01:43:59;;;;;;;19.70;6.72;;;-0.40;99.90;;;;;;8213390;28;20093;-77
2023/03/06 01:47:59;;;;;;;15.32;7.28;;;-0.30;99.90;;;;;;8218601;28;20049;-77
2023/03/06 01:52:05;;;;;;;16.55;6.38;;;-0.40;99.90;;;;;;8227977;28;20097;-78
2023/03/06 01:56:06;;;;;;;15.60;6.97;;;-0.40;99.90;;;;;;8219683;28;20549;-78
2023/03/06 02:00:10;;;;;;;12.25;6.43;;;-0.50;99.90;;;;;;8223106;28;20026;-78
2023/03/06 02:04:11;;;;;;;15.93;7.03;;;-0.50;99.90;;;;;;8207098;28;20027;-78
2023/03/06 02:08:16;;;;;;;16.85;7.45;;;-0.50;99.90;;;;;;8226357;28;20085;-78
2023/03/06 02:12:19;;;;;;;16.50;7.30;;;-0.40;99.90;;;;;;8220002;28;20057;-78
2023/03/06 02:16:25;;;;;;;16.80;7.07;;;-0.30;99.90;;;;;;8208872;28;20031;-77
2023/03/06 02:20:58;;;;;;;17.85;7.15;;;-0.30;99.90;;;;;;8202097;28;20027;-78
2023/03/06 02:25:21;;;;;;;18.83;7.57;;;-0.20;99.90;;;;;;8194355;28;20629;-77
2023/03/06 02:29:26;;;;;;;16.17;6.78;;;-0.10;99.90;;;;;;8204131;28;20023;-77
2023/03/06 02:33:28;;;;;;;19.95;7.32;;;-0.20;99.90;;;;;;8225007;28;20050;-78
2023/03/06 02:37:29;;;;;;;15.90;7.13;;;-0.20;99.90;;;;;;8222170;28;20038;-77
2023/03/06 02:41:29;;;;;;;18.05;6.72;;;-0.30;99.90;;;;;;8225917;28;20097;-78
2023/03/06 02:45:41;;;;;;;19.77;7.60;;;-0.30;99.90;;;;;;8219182;28;20122;-78
2023/03/06 02:49:41;;;;;;;15.77;6.43;;;0.00;99.90;;;;;;8227437;28;20031;-78
2023/03/06 02:53:42;;;;;;;15.25;6.13;;;-0.10;99.90;;;;;;8230387;28;20038;-78
2023/03/06 02:57:43;;;;;;;20.85;7.22;;;-0.20;99.90;;;;;;8225556;28;20086;-78
2023/03/06 03:01:43;;;;;;;17.73;6.40;;;-0.20;99.90;;;;;;8229942;28;20039;-78
2023/03/06 03:05:44;;;;;;;20.55;7.22;;;-0.20;99.90;;;;;;8222956;28;20027;-79
2023/03/06 03:09:44;;;;;;;14.80;7.00;;;-0.20;99.90;;;;;;8219875;28;20023;-78
2023/03/06 03:13:45;;;;;;;20.27;6.93;;;-0.20;99.90;;;;;;8219895;28;20676;-78
2023/03/06 03:17:45;;;;;;;22.30;7.05;;;-0.20;99.90;;;;;;8221471;28;20031;-78
2023/03/06 03:21:46;;;;;;;19.02;6.93;;;-0.10;99.90;;;;;;8230103;28;20039;-78
2023/03/06 03:25:46;;;;;;;21.23;7.28;;;0.00;99.90;;;;;;8220069;28;20569;-77
2023/03/06 03:29:47;;;;;;;20.00;6.85;;;-0.10;99.90;;;;;;8224722;28;20125;-77
2023/03/06 03:33:48;;;;;;;20.52;7.45;;;-0.10;99.90;;;;;;8199181;28;20049;-78
2023/03/06 03:37:48;;;;;;;16.05;6.72;;;-0.20;99.90;;;;;;8228061;28;20038;-77
2023/03/06 03:41:49;;;;;;;19.17;8.07;;;-0.30;99.90;;;;;;8222819;28;20030;-78
2023/03/06 03:45:52;;;;;;;19.83;7.50;;;-0.30;99.90;;;;;;8225009;28;20027;-77
2023/03/06 03:49:52;;;;;;;20.70;7.10;;;-0.20;99.90;;;;;;8225538;28;20097;-78
2023/03/06 03:53:55;;;;;;;17.58;7.93;;;-0.20;99.90;;;;;;8229007;28;20026;-78
2023/03/06 03:57:56;;;;;;;25.42;7.80;;;-0.20;99.90;;;;;;8226286;28;20026;-77
2023/03/06 04:01:56;;;;;;;20.85;8.25;;;-0.20;99.90;;;;;;8218770;28;20085;-77
2023/03/06 04:05:57;;;;;;;19.13;8.25;;;0.40;99.90;;;;;;8209918;28;20027;-77
2023/03/06 04:09:58;;;;;;;20.65;7.85;;;0.60;99.90;;;;;;8217309;28;20404;-77
2023/03/06 04:13:58;;;;;;;22.35;7.88;;;0.30;99.90;;;;;;8212921;28;20030;-77
2023/03/06 04:17:59;;;;;;;16.23;6.60;;;0.20;99.90;;;;;;8216670;28;20495;-78
2023/03/06 04:22:00;;;;;;;19.30;8.05;;;0.50;99.90;;;;;;8197417;28;20058;-77
2023/03/06 04:26:01;;;;;;;19.45;7.55;;;0.60;99.90;;;;;;8197921;28;20087;-78
2023/03/06 04:30:02;;;;;;;19.90;8.32;;;0.30;99.90;;;;;;8185839;28;20032;-77
2023/03/06 04:34:02;;;;;;;21.77;8.00;;;0.20;99.90;;;;;;8191775;28;20377;-78
2023/03/06 04:38:03;;;;;;;23.23;8.50;;;0.60;99.90;;;;;;8218683;28;20403;-78
2023/03/06 04:42:04;;;;;;;24.45;8.95;;;0.70;99.90;;;;;;8221040;28;20051;-77
2023/03/06 04:46:05;;;;;;;21.48;8.93;;;0.40;99.90;;;;;;8209460;28;20404;-78
2023/03/06 04:50:06;;;;;;;14.40;6.53;;;0.30;99.90;;;;;;8226079;28;20546;-78
2023/03/06 04:54:07;;;;;;;17.90;7.72;;;0.80;99.90;;;;;;8226770;28;20030;-77
2023/03/06 04:58:10;;;;;;;22.85;8.25;;;0.80;99.90;;;;;;8216033;28;20125;-78
2023/03/06 05:02:10;;;;;;;19.70;8.10;;;0.50;99.90;;;;;;8215885;28;20027;-78
2023/03/06 05:06:11;;;;;;;23.17;8.90;;;0.60;99.90;;;;;;8205025;28;20539;-77
2023/03/06 05:10:14;;;;;;;19.33;8.32;;;0.40;99.90;;;;;;8225730;28;20015;-77
2023/03/06 05:14:15;;;;;;;22.95;8.48;;;0.50;99.90;;;;;;8190213;28;20027;-78
2023/03/06 05:18:15;;;;;;;18.13;7.78;;;0.40;99.90;;;;;;8206267;28;20035;-77
2023/03/06 05:22:16;;;;;;;18.08;7.53;;;0.30;99.90;;;;;;8206207;28;20400;-77
2023/03/06 05:26:17;;;;;;;21.55;7.97;;;0.30;99.90;;;;;;8207019;28;20019;-78
2023/03/06 05:30:20;;;;;;;21.55;7.72;;;0.30;99.90;;;;;;8202127;28;20018;-78
2023/03/06 05:34:21;;;;;;;19.70;8.02;;;0.40;99.90;;;;;;8223497;28;20034;-79
2023/03/06 05:38:22;;;;;;;17.40;7.45;;;0.20;99.90;;;;;;8219023;28;20034;-78
2023/03/06 05:42:22;;;;;;;17.08;6.68;;;0.10;99.90;;;;;;8209784;28;20540;-79
2023/03/06 05:46:23;;;;;;;18.67;8.13;;;0.30;99.90;;;;;;8209523;28;20472;-78
2023/03/06 05:50:23;;;;;;;12.25;6.53;;;0.50;99.90;;;;;;8201880;28;20019;-77
2023/03/06 05:54:25;;;;;;;18.98;7.90;;;0.60;99.90;;;;;;8221284;28;20081;-79
2023/03/06 05:58:26;;;;;;;18.13;8.93;;;0.70;99.90;;;;;;8219033;28;20076;-78
2023/03/06 06:02:27;;;;;;;22.10;9.20;;;0.80;99.90;;;;;;8208056;28;20034;-77
2023/03/06 06:06:27;;;;;;;26.55;8.65;;;0.70;99.90;;;;;;8211987;28;20147;-77
2023/03/06 06:10:28;;;;;;;26.33;10.25;;;0.60;99.90;;;;;;8215553;28;20128;-78
2023/03/06 06:14:31;;;;;;;20.95;8.27;;;0.40;99.90;;;;;;8227700;28;20110;-77
2023/03/06 06:18:32;;;;;;;25.23;9.13;;;0.30;99.90;;;;;;8213616;28;20118;-77
2023/03/06 06:22:35;;;;;;;18.38;7.85;;;0.20;99.90;;;;;;8226479;28;20026;-78
2023/03/06 06:26:36;;;;;;;24.50;8.93;;;0.20;99.90;;;;;;8221362;28;20053;-78
2023/03/06 06:30:36;;;;;;;20.85;8.75;;;0.90;99.90;;;;;;8224523;28;20027;-78
2023/03/06 06:34:37;;;;;;;20.48;7.70;;;1.20;99.90;;;;;;8225595;28;20042;-78
2023/03/06 06:38:37;;;;;;;20.88;9.05;;;0.80;99.90;;;;;;8219484;28;20027;-78
2023/03/06 06:42:38;;;;;;;19.67;7.07;;;0.60;99.90;;;;;;8216653;28;20400;-77
2023/03/06 06:46:40;;;;;;;19.83;8.15;;;1.30;99.90;;;;;;8199309;28;20038;-78
2023/03/06 06:50:40;;;;;;;18.70;7.53;;;1.20;99.90;;;;;;8210390;28;20086;-78
2023/03/06 06:54:41;;;;;;;21.83;8.70;;;1.10;99.90;;;;;;8202403;28;20027;-78
2023/03/06 06:58:41;;;;;;;22.60;9.10;;;1.10;99.90;;;;;;8200470;28;20038;-78
2023/03/06 07:02:42;;;;;;;19.33;7.28;;;1.40;99.90;;;;;;8212980;28;20105;-77
2023/03/06 07:06:43;;;;;;;26.95;10.23;;;1.60;99.90;;;;;;8208906;28;20023;-78
2023/03/06 07:10:43;;;;;;;23.40;9.05;;;1.70;99.90;;;;;;8212613;28;20519;-76
2023/03/06 07:14:44;;;;;;;19.77;8.93;;;1.90;99.90;;;;;;8206281;28;20037;-77
2023/03/06 07:18:45;;;;;;;20.92;8.50;;;1.70;99.90;;;;;;8210124;28;20045;-78
2023/03/06 07:22:46;;;;;;;17.52;8.23;;;1.60;99.90;;;;;;8205854;28;20057;-78
2023/03/06 07:26:47;;;;;;;26.08;10.18;;;1.40;99.90;;;;;;8225237;28;20049;-79
2023/03/06 07:30:47;;;;;;;23.15;9.55;;;1.30;99.90;;;;;;8227079;28;20065;-77
2023/03/06 07:34:48;;;;;;;22.58;9.35;;;1.20;99.90;;;;;;8207170;28;20055;-77
2023/03/06 07:38:48;;;;;;;24.63;9.05;;;1.40;99.90;;;;;;8217020;28;20536;-77
2023/03/06 07:42:55;;;;;;;24.13;9.40;;;1.60;99.90;;;;;;8210629;28;20046;-77
2023/03/06 07:46:56;;;;;;;25.35;9.40;;;2.00;99.90;;;;;;8196122;28;20023;-77
2023/03/06 07:51:00;;;;;;;19.67;9.07;;;2.20;99.90;;;;;;8228800;28;20590;-78
2023/03/06 07:55:01;;;;;;;19.35;8.93;;;2.50;99.90;;;;;;8218885;28;20484;-77
2023/03/06 07:59:01;;;;;;;25.08;9.48;;;2.50;99.90;;;;;;8203703;28;20118;-77
2023/03/06 08:03:02;;;;;;;23.35;9.60;;;2.60;99.90;;;;;;8212315;28;20111;-78
2023/03/06 08:07:03;;;;;;;26.15;9.18;;;2.60;99.90;;;;;;8215794;28;20166;-78
2023/03/06 08:11:05;;;;;;;25.70;9.48;;;2.50;99.90;;;;;;8194940;28;20019;-78
2023/03/06 08:15:08;;;;;;;25.48;9.02;;;2.60;99.90;;;;;;8229391;28;20443;-77
2023/03/06 08:19:09;;;;;;;26.67;8.93;;;2.60;99.90;;;;;;8213664;28;20554;-77
2023/03/06 08:23:10;;;;;;;13.32;4.75;;;2.60;99.90;;;;;;8227161;28;20077;-77
2023/03/06 08:27:11;;;;;;;20.38;9.35;;;2.60;99.90;;;;;;8205558;28;20496;-78
2023/03/06 08:31:25;;;;;;;24.25;9.35;;;2.40;99.90;;;;;;8203740;28;20028;-78
2023/03/06 08:35:25;;;;;;;21.10;9.00;;;2.50;99.90;;;;;;8211639;28;20035;-77
2023/03/06 08:39:26;;;;;;;21.48;9.45;;;2.70;99.90;;;;;;8219588;28;20515;-76
2023/03/06 08:43:26;;;;;;;23.23;8.20;;;2.80;99.90;;;;;;8205333;28;20035;-76
2023/03/06 08:47:27;;;;;;;23.38;8.48;;;3.00;99.90;;;;;;8221174;28;20486;-77
2023/03/06 08:51:28;;;;;;;21.98;8.82;;;2.90;99.90;;;;;;8222786;28;20125;-77
2023/03/06 08:55:28;;;;;;;21.10;8.43;;;3.10;99.90;;;;;;8226930;28;20031;-77
2023/03/06 08:59:29;;;;;;;21.38;8.60;;;3.00;99.90;;;;;;8205878;28;20105;-77
2023/03/06 09:03:30;;;;;;;20.77;9.63;;;3.10;99.90;;;;;;8216336;28;20556;-77
2023/03/06 09:07:31;;;;;;;20.52;7.75;;;3.00;99.90;;;;;;8211149;28;20047;-77
2023/03/06 09:11:32;;;;;;;20.83;7.90;;;3.10;99.90;;;;;;8207163;28;20082;-77
2023/03/06 09:15:32;;;;;;;16.90;7.60;;;2.90;99.90;;;;;;8208737;28;20118;-78
2023/03/06 09:19:33;;;;;;;23.75;8.82;;;3.40;99.90;;;;;;8208628;28;20503;-77
2023/03/06 09:23:34;;;;;;;18.42;7.38;;;3.50;99.90;;;;;;8208524;28;20085;-77
2023/03/06 09:27:35;;;;;;;18.75;7.97;;;3.60;99.90;;;;;;8210000;28;20027;-78
2023/03/06 09:31:36;;;;;;;18.80;7.82;;;3.70;99.90;;;;;;8207937;28;20027;-77
2023/03/06 09:35:48;;;;;;;20.73;6.22;;;3.90;99.90;;;;;;8218212;28;20498;-77
2023/03/06 09:39:48;;;;;;;17.10;7.38;;;3.90;99.90;;;;;;8212512;28;20065;-78
2023/03/06 09:44:17;;;;;;;18.15;7.82;;;4.20;99.90;;;;;;8212311;28;20038;-78
2023/03/06 09:48:25;;;;;;;19.73;7.20;;;4.50;99.90;;;;;;8219747;28;20138;-77
2023/03/06 09:52:35;;;;;;;17.50;7.40;;;4.60;99.90;;;;;;8220416;28;20023;-77
2023/03/06 09:56:36;;;;;;;20.17;6.57;;;4.60;99.90;;;;;;8210354;28;20030;-78
2023/03/06 10:00:40;;;;;;;17.55;7.80;;;4.50;99.90;;;;;;8224719;28;20766;-77
2023/03/06 10:04:46;;;;;;;19.85;7.28;;;4.40;99.90;;;;;;8218654;28;20028;-78
2023/03/06 10:09:06;;;;;;;20.45;8.40;;;4.40;99.90;;;;;;8223247;28;20110;-78
2023/03/06 10:13:23;;;;;;;10.97;4.27;;;4.20;99.90;;;;;;8228295;28;20392;-77
2023/03/06 10:17:27;;;;;;;19.77;7.80;;;4.20;99.90;;;;;;8215351;28;20030;-77
2023/03/06 10:21:54;;;;;;;18.38;7.72;;;4.40;99.90;;;;;;8211450;28;20034;-77
2023/03/06 10:26:08;;;;;;;19.13;7.70;;;4.60;99.90;;;;;;8203631;28;20023;-77
2023/03/06 10:30:21;;;;;;;18.35;7.65;;;5.00;99.90;;;;;;8195289;28;20023;-78
2023/03/06 10:34:27;;;;;;;17.38;7.18;;;5.00;99.90;;;;;;8203298;28;20077;-78
2023/03/06 10:38:31;;;;;;;15.48;7.22;;;5.30;99.90;;;;;;8206866;28;20027;-78
2023/03/06 10:42:31;;;;;;;18.95;8.45;;;5.80;99.90;;;;;;8225404;28;20085;-77
2023/03/06 10:46:35;;;;;;;11.55;5.78;;;6.30;99.90;;;;;;8225250;28;20042;-78
2023/03/06 10:50:35;;;;;;;15.82;6.90;;;6.50;99.90;;;;;;8207239;28;20027;-76
2023/03/06 10:54:39;;;;;;;17.15;7.43;;;6.20;99.90;;;;;;8220466;28;20059;-77
2023/03/06 10:58:39;;;;;;;16.95;6.75;;;6.00;99.90;;;;;;8233011;28;20372;-77
2023/03/06 11:02:39;;;;;;;12.73;5.03;;;5.90;99.90;;;;;;8231129;28;20026;-78
2023/03/06 11:06:41;;;;;;;13.35;6.57;;;5.80;99.90;;;;;;8231871;28;20499;-77
2023/03/06 11:11:14;;;;;;;17.70;7.25;;;5.70;99.90;;;;;;8232895;28;20114;-77
2023/03/06 11:15:22;;;;;;;8.63;3.90;;;5.90;99.90;;;;;;8205300;28;20097;-78
2023/03/06 11:19:27;;;;;;;15.93;7.15;;;6.00;99.90;;;;;;8229663;28;20027;-78
2023/03/06 11:23:39;;;;;;;13.30;5.43;;;5.80;99.90;;;;;;8233143;28;20093;-77
2023/03/06 11:27:43;;;;;;;15.50;6.07;;;5.80;99.90;;;;;;8220309;28;20441;-77
2023/03/06 11:32:09;;;;;;;12.68;6.07;;;5.80;99.90;;;;;;8232791;28;20399;-77
2023/03/06 11:36:32;;;;;;;16.50;5.68;;;5.80;99.90;;;;;;8222608;28;20039;-77
2023/03/06 11:40:42;;;;;;;15.80;5.32;;;5.90;99.90;;;;;;8231630;28;20023;-77
2023/03/06 11:45:21;;;;;;;14.88;6.30;;;5.70;99.90;;;;;;8219690;28;20469;-78
2023/03/06 11:49:30;;;;;;;11.80;5.60;;;5.40;99.90;;;;;;8227704;28;20023;-77
2023/03/06 11:53:34;;;;;;;6.93;3.88;;;5.20;99.90;;;;;;8231313;28;20062;-78
2023/03/06 11:57:48;;;;;;;15.00;5.63;;;5.10;99.90;;;;;;8217002;28;20027;-78
2023/03/06 12:02:15;;;;;;;16.67;6.75;;;5.10;99.90;;;;;;8222638;28;20502;-77
2023/03/06 12:06:16;;;;;;;16.00;6.13;;;5.10;99.90;;;;;;8229798;28;20078;-76
2023/03/06 12:10:16;;;;;;;7.47;3.80;;;5.40;99.90;;;;;;8230416;28;20022;-77
2023/03/06 12:14:31;;;;;;;7.97;3.60;;;5.40;99.90;;;;;;8222484;28;20048;-77
2023/03/06 12:19:09;;;;;;;10.35;4.72;;;5.30;99.90;;;;;;8215909;28;20059;-78
2023/03/06 12:23:41;;;;;;;12.60;4.63;;;5.30;99.90;;;;;;8208816;28;20038;-78
2023/03/06 12:27:53;;;;;;;11.57;4.93;;;5.20;99.90;;;;;;8229577;28;20541;-77
2023/03/06 12:32:39;;;;;;;13.23;6.22;;;5.20;99.90;;;;;;8229855;28;20022;-77
2023/03/06 12:37:13;;;;;;;9.40;4.30;;;5.10;99.90;;;;;;8157551;28;20043;-77
2023/03/06 12:41:47;;;;;;;14.77;4.05;;;4.80;99.90;;;;;;8210694;28;20035;-78
2023/03/06 12:45:51;;;;;;;9.60;4.15;;;4.80;99.90;;;;;;8210608;28;20030;-76
2023/03/06 12:50:01;;;;;;;12.32;5.43;;;5.20;99.90;;;;;;8206812;28;20121;-77
2023/03/06 12:54:02;;;;;;;9.82;4.70;;;5.60;99.90;;;;;;8225591;28;20033;-77
2023/03/06 12:58:33;;;;;;;15.10;6.07;;;5.80;99.90;;;;;;8222812;28;20098;-78
2023/03/06 13:02:59;;;;;;;11.45;5.75;;;6.30;99.90;;;;;;8207337;28;20038;-77
2023/03/06 13:07:27;;;;;;;9.43;4.75;;;6.80;99.90;;;;;;8227724;28;20027;-77
2023/03/06 13:12:08;;;;;;;22.30;8.32;;;6.90;99.90;;;;;;8226697;28;20023;-77
2023/03/06 13:16:21;;;;;;;14.50;5.07;;;6.80;99.90;;;;;;8227043;28;20488;-77
2023/03/06 13:20:36;;;;;;;14.23;5.10;;;7.00;99.90;;;;;;8228684;28;20170;-77
2023/03/06 13:24:37;;;;;;;13.27;5.82;;;7.20;99.90;;;;;;8215533;28;20282;-77
2023/03/06 13:28:49;;;;;;;11.20;5.25;;;7.30;99.90;;;;;;8226745;28;20106;-76
2023/03/06 13:32:51;;;;;;;11.50;5.45;;;7.30;99.90;;;;;;8228842;28;20031;-78
2023/03/06 13:36:52;;;;;;;14.43;6.13;;;7.50;99.90;;;;;;8228281;28;20089;-77
2023/03/06 13:41:21;;;;;;;13.18;5.53;;;7.60;99.90;;;;;;8222694;28;20414;-78
2023/03/06 13:45:23;;;;;;;8.55;4.43;;;7.60;99.90;;;;;;8226120;28;20026;-77
2023/03/06 13:49:24;;;;;;;9.05;4.57;;;7.90;99.90;;;;;;8217060;28;20097;-78
2023/03/06 13:53:36;;;;;;;10.18;4.60;;;8.20;99.90;;;;;;8226391;28;20019;-77
2023/03/06 13:58:15;;;;;;;9.32;4.78;;;8.90;99.90;;;;;;8218765;28;20034;-77
2023/03/06 14:02:34;;;;;;;9.70;4.60;;;9.50;99.90;;;;;;8195953;28;20035;-77
2023/03/06 14:06:34;;;;;;;7.35;3.60;;;8.20;99.90;;;;;;8227445;28;20027;-77
2023/03/06 14:10:37;;;;;;;6.68;3.78;;;7.50;99.90;;;;;;8226070;28;20030;-78
2023/03/06 14:14:42;;;;;;;8.45;4.32;;;6.80;99.90;;;;;;8226175;28;20101;-77
2023/03/06 14:18:48;;;;;;;8.35;3.38;;;6.60;99.90;;;;;;8217068;28;20396;-77
2023/03/06 14:22:48;;;;;;;9.73;4.65;;;6.50;99.90;;;;;;8201462;28;20031;-77
2023/03/06 14:26:50;;;;;;;8.68;4.63;;;6.30;99.90;;;;;;8203399;28;20487;-76
2023/03/06 14:30:52;;;;;;;10.52;3.97;;;6.00;99.90;;;;;;8225859;28;20098;-76
2023/03/06 14:34:53;;;;;;;7.25;3.72;;;5.70;99.90;;;;;;8225428;28;20058;-77
2023/03/06 14:39:01;;;;;;;6.10;3.38;;;5.70;99.90;;;;;;8227092;28;20030;-77
2023/03/06 14:43:16;;;;;;;6.18;3.15;;;5.90;99.90;;;;;;8224862;28;20388;-77
2023/03/06 14:47:23;;;;;;;6.78;3.00;;;5.90;99.90;;;;;;8224116;28;20551;-77
2023/03/06 14:51:24;;;;;;;4.90;2.70;;;5.90;99.90;;;;;;8219918;28;20031;-77
2023/03/06 14:55:26;;;;;;;5.90;2.28;;;6.00;99.90;;;;;;8226043;28;20034;-78
2023/03/06 14:59:31;;;;;;;5.90;3.20;;;6.20;99.90;;;;;;8226705;28;20034;-78
2023/03/06 15:03:34;;;;;;;7.82;3.25;;;6.20;99.90;;;;;;8211513;28;20408;-78
2023/03/06 15:07:36;;;;;;;8.52;3.42;;;6.00;99.90;;;;;;8218237;28;20049;-80
2023/03/06 15:11:52;;;;;;;5.32;3.03;;;6.20;99.90;;;;;;8223737;28;20024;-81
2023/03/06 15:16:04;;;;;;;8.25;3.03;;;6.00;99.90;;;;;;8217497;28;20395;-80
2023/03/06 15:20:07;;;;;;;5.50;3.28;;;5.80;99.90;;;;;;8206255;28;20038;-78
2023/03/06 15:24:30;;;;;;;7.93;3.65;;;5.70;99.90;;;;;;8223295;28;20047;-77
2023/03/06 15:28:37;;;;;;;8.02;3.63;;;5.70;99.90;;;;;;8212608;28;20073;-78
2023/03/06 15:32:41;;;;;;;7.07;3.50;;;5.80;99.90;;;;;;8221575;28;20089;-77
2023/03/06 15:36:56;;;;;;;8.75;3.78;;;5.60;99.90;;;;;;8206403;28;20026;-78
2023/03/06 15:40:59;;;;;;;8.02;3.55;;;5.50;99.90;;;;;;8204350;28;20052;-77
2023/03/06 15:45:11;;;;;;;7.13;3.42;;;5.40;99.90;;;;;;8212994;28;20035;-77
2023/03/06 15:49:15;;;;;;;7.25;3.05;;;5.40;99.90;;;;;;8192882;28;20022;-76
2023/03/06 15:53:16;;;;;;;9.50;3.42;;;5.40;99.90;;;;;;8211558;28;20456;-77
2023/03/06 15:57:23;;;;;;;5.93;2.72;;;5.20;99.90;;;;;;8211214;28;20027;-78
2023/03/06 16:01:24;;;;;;;7.50;3.30;;;5.00;99.90;;;;;;8199080;28;20110;-77
2023/03/06 16:05:26;;;;;;;6.55;3.35;;;4.90;99.90;;;;;;8204621;28;20011;-77
2023/03/06 16:09:27;;;;;;;6.72;2.97;;;4.80;99.90;;;;;;8210302;28;20641;-82
2023/03/06 16:13:28;;;;;;;7.13;3.08;;;4.60;99.90;;;;;;8200642;28;20023;-78
2023/03/06 16:17:28;;;;;;;8.32;3.95;;;4.50;99.90;;;;;;8201225;28;20699;-78
2023/03/06 16:21:29;;;;;;;6.70;3.40;;;4.40;99.90;;;;;;8205481;28;20047;-78
2023/03/06 16:25:29;;;;;;;5.57;2.97;;;4.40;99.90;;;;;;8208539;28;20093;-78
2023/03/06 16:29:30;;;;;;;7.05;3.53;;;4.30;99.90;;;;;;8201357;28;20512;-78
2023/03/06 16:33:31;;;;;;;5.80;3.42;;;4.40;99.90;;;;;;8202986;28;20038;-78
2023/03/06 16:37:31;;;;;;;7.75;3.60;;;4.40;99.90;;;;;;8168523;28;1028467;-78
2023/03/06 16:41:32;;;;;;;7.18;3.22;;;4.30;99.90;;;;;;8202648;28;20028;-77
2023/03/06 16:45:38;;;;;;;7.25;3.35;;;4.40;99.90;;;;;;8203339;28;20019;-78
2023/03/06 16:49:39;;;;;;;7.43;3.13;;;4.20;99.90;;;;;;8205296;28;20019;-77
2023/03/06 16:53:39;;;;;;;7.18;3.08;;;4.10;99.90;;;;;;8202485;28;20059;-78
2023/03/06 16:57:40;;;;;;;7.65;3.47;;;4.00;99.90;;;;;;8221566;28;20023;-79
2023/03/06 17:01:41;;;;;;;8.40;3.20;;;3.90;99.90;;;;;;8213209;28;20034;-77
2023/03/06 17:05:42;;;;;;;8.50;4.28;;;4.00;99.90;;;;;;8225924;28;20022;-78
2023/03/06 17:09:43;;;;;;;11.50;5.75;;;3.80;99.90;;;;;;8219069;28;20381;-78
2023/03/06 17:13:43;;;;;;;11.57;5.65;;;3.70;99.90;;;;;;8218064;28;20023;-78
2023/03/06 17:17:44;;;;;;;7.25;3.97;;;3.50;99.90;;;;;;8220164;28;20621;-78
2023/03/06 17:21:44;;;;;;;7.05;3.55;;;3.30;99.90;;;;;;8199928;28;20045;-78
2023/03/06 17:25:45;;;;;;;6.28;3.58;;;3.10;99.90;;;;;;8191706;28;20035;-77
2023/03/06 17:29:46;;;;;;;11.98;3.75;;;3.00;99.90;;;;;;8209800;28;20042;-77
2023/03/06 17:33:47;;;;;;;5.78;2.95;;;3.10;99.90;;;;;;8204476;28;20492;-77
2023/03/06 17:37:48;;;;;;;5.93;3.22;;;3.30;99.90;;;;;;8203835;28;20037;-77
2023/03/06 17:41:49;;;;;;;9.02;3.28;;;3.00;99.90;;;;;;8203093;28;20026;-77
2023/03/06 17:45:49;;;;;;;7.25;3.45;;;2.70;99.90;;;;;;8182724;28;20499;-78
2023/03/06 17:49:50;;;;;;;7.93;3.60;;;2.60;99.90;;;;;;8194884;28;20445;-78
2023/03/06 17:53:51;;;;;;;11.27;3.80;;;2.50;99.90;;;;;;8220261;28;20062;-78
2023/03/06 17:57:51;;;;;;;10.68;3.92;;;2.40;99.90;;;;;;8210002;28;20135;-77
2023/03/06 18:01:55;;;;;;;10.73;4.18;;;2.40;99.90;;;;;;8212570;28;20031;-77
2023/03/06 18:06:02;;;;;;;7.68;3.85;;;2.30;99.90;;;;;;8202786;28;20051;-78
2023/03/06 18:10:03;;;;;;;7.50;4.18;;;2.20;99.90;;;;;;8202071;28;20073;-78
2023/03/06 18:14:04;;;;;;;10.43;3.85;;;2.10;99.90;;;;;;8186760;28;20027;-77
2023/03/06 18:18:05;;;;;;;7.90;4.13;;;2.10;99.90;;;;;;8177350;28;20090;-77
2023/03/06 18:22:06;;;;;;;15.73;3.78;;;2.10;99.90;;;;;;8207173;28;20038;-78
2023/03/06 18:26:13;;;;;;;9.07;3.97;;;2.20;99.90;;;;;;8215839;28;20026;-78
2023/03/06 18:30:13;;;;;;;10.27;4.38;;;2.30;99.90;;;;;;8216234;28;20027;-77
2023/03/06 18:34:16;;;;;;;8.38;4.75;;;2.20;99.90;;;;;;8218355;28;20122;-76
2023/03/06 18:38:17;;;;;;;7.88;3.72;;;2.30;99.90;;;;;;8225496;28;20023;-77
2023/03/06 18:42:17;;;;;;;9.82;3.47;;;2.30;99.90;;;;;;8224221;28;20539;-77
2023/03/06 18:46:18;;;;;;;5.75;3.58;;;2.20;99.90;;;;;;8205202;28;20067;-77
2023/03/06 18:50:18;;;;;;;8.30;4.22;;;2.20;99.90;;;;;;8205296;28;20685;-76
2023/03/06 18:54:19;;;;;;;8.05;3.80;;;2.10;99.90;;;;;;8197468;28;20026;-77
2023/03/06 18:58:20;;;;;;;11.38;4.22;;;2.20;99.90;;;;;;8224839;28;20018;-78
2023/03/06 19:02:21;;;;;;;8.40;4.15;;;2.20;99.90;;;;;;8223737;28;20031;-78
2023/03/06 19:06:21;;;;;;;10.68;4.40;;;2.10;99.90;;;;;;8224616;28;20049;-78
2023/03/06 19:10:22;;;;;;;8.88;3.97;;;2.20;99.90;;;;;;8210038;28;20034;-78
2023/03/06 19:14:22;;;;;;;11.02;3.72;;;2.20;99.90;;;;;;8206763;28;20031;-78
2023/03/06 19:18:24;;;;;;;8.05;3.35;;;2.10;99.90;;;;;;8228133;28;20026;-77
2023/03/06 19:22:25;;;;;;;7.68;3.72;;;2.00;99.90;;;;;;8228282;28;20093;-77
2023/03/06 19:26:26;;;;;;;7.63;3.35;;;1.90;99.90;;;;;;8221946;28;20694;-77
2023/03/06 19:30:27;;;;;;;7.60;3.35;;;1.80;99.90;;;;;;8231795;28;20097;-78
2023/03/06 19:34:28;;;;;;;9.07;3.80;;;1.80;99.90;;;;;;8225178;28;20026;-78
2023/03/06 19:38:28;;;;;;;8.70;3.70;;;1.90;99.90;;;;;;8221337;28;20060;-78
2023/03/06 19:42:30;;;;;;;8.55;3.60;;;1.90;99.90;;;;;;8222272;28;20069;-77
2023/03/06 19:46:31;;;;;;;10.32;4.25;;;1.90;99.90;;;;;;8228481;28;20259;-77
2023/03/06 19:50:33;;;;;;;9.20;3.83;;;1.90;99.90;;;;;;8227051;28;20102;-77
2023/03/06 19:54:34;;;;;;;7.20;3.58;;;1.90;99.90;;;;;;8219023;28;20039;-78
2023/03/06 19:58:35;;;;;;;9.15;3.80;;;1.80;99.90;;;;;;8203793;28;20019;-77
2023/03/06 20:02:35;;;;;;;10.10;3.72;;;1.70;99.90;;;;;;8210592;28;20041;-77
2023/03/06 20:06:37;;;;;;;9.02;4.00;;;1.80;99.90;;;;;;8218225;28;20038;-76
2023/03/06 20:10:38;;;;;;;7.28;3.58;;;1.70;99.90;;;;;;8219614;28;20034;-77
2023/03/06 20:14:38;;;;;;;8.20;3.30;;;1.70;99.90;;;;;;8217285;28;20062;-77
2023/03/06 20:18:39;;;;;;;6.38;3.00;;;1.80;99.90;;;;;;8220551;28;20038;-77
2023/03/06 20:22:40;;;;;;;7.55;3.30;;;1.70;99.90;;;;;;8201342;28;20091;-77
2023/03/06 20:26:41;;;;;;;8.40;3.63;;;1.70;99.90;;;;;;8201944;28;20186;-79
2023/03/06 20:30:41;;;;;;;7.60;3.72;;;1.60;99.90;;;;;;8204661;28;20035;-77
2023/03/06 20:34:43;;;;;;;6.82;3.15;;;1.60;99.90;;;;;;8203059;28;20768;-76
2023/03/06 20:38:44;;;;;;;6.88;3.33;;;1.50;99.90;;;;;;8205832;28;20027;-77
2023/03/06 20:42:45;;;;;;;9.85;4.28;;;1.50;99.90;;;;;;8204663;28;20031;-77
2023/03/06 20:46:46;;;;;;;5.15;3.13;;;1.60;99.90;;;;;;8205251;28;20071;-77
2023/03/06 20:51:04;;;;;;;7.45;3.40;;;1.60;99.90;;;;;;8204306;28;20034;-77
2023/03/06 20:55:05;;;;;;;7.85;3.67;;;1.70;99.90;;;;;;8203996;28;20034;-77
2023/03/06 20:59:09;;;;;;;8.82;3.67;;;1.80;99.90;;;;;;8219669;28;20113;-80
2023/03/06 21:03:09;;;;;;;8.98;3.67;;;1.70;99.90;;;;;;8218141;28;20082;-77
2023/03/06 21:07:11;;;;;;;8.82;3.67;;;1.60;99.90;;;;;;8225363;28;20492;-76
2023/03/06 21:11:12;;;;;;;5.30;3.05;;;1.50;99.90;;;;;;8228203;28;20029;-77
2023/03/06 21:15:12;;;;;;;10.00;4.10;;;1.50;99.90;;;;;;8226691;28;20027;-78